This is the latest recevied weather packets stored in our database for station/object E22ZMG-1. If no packets are shown the sender has not sent any weather packets the latest 10 day(s).
| Time | Temp. | Humidity | Pressure | Rain* | Wind** | Luminosity | Snow |
|---|---|---|---|---|---|---|---|
| 1778084245 | 35° C | 47% | 974 hPa | - | - | 0 W/m² | - |
| 1778083619 | 35° C | 48% | 974 hPa | - | - | 0 W/m² | - |
| 1778083519 | 35° C | 47% | 974 hPa | - | - | 0 W/m² | - |
| 1778082894 | 35° C | 46% | 974 hPa | - | - | 0 W/m² | - |
| 1778082268 | 35° C | 46% | 974 hPa | - | - | 0 W/m² | - |
| 1778081643 | 35.56° C | 46% | 974 hPa | - | - | 0 W/m² | - |
| 1778081018 | 35.56° C | 45% | 973 hPa | - | - | 0 W/m² | - |
| 1778080392 | 36.11° C | 45% | 974 hPa | - | - | 0 W/m² | - |
| 1778079766 | 35.56° C | 45% | 974 hPa | - | - | 0 W/m² | - |
| 1778079141 | 35° C | 47% | 973 hPa | - | - | 0 W/m² | - |
| 1778078516 | 35° C | 48% | 973 hPa | - | - | 0 W/m² | - |
| 1778077891 | 35° C | 50% | 973 hPa | - | - | 0 W/m² | - |
| 1778077266 | 35.56° C | 50% | 973 hPa | - | - | 0 W/m² | - |
| 1778076639 | 35.56° C | 49% | 973 hPa | - | - | 0 W/m² | - |
| 1778076015 | 36.11° C | 46% | 973 hPa | - | - | 0 W/m² | - |
| 1778075390 | 37.22° C | 42% | 972 hPa | - | - | 0 W/m² | - |
| 1778074764 | 37.22° C | 42% | 972 hPa | - | - | 0 W/m² | - |
| 1778074140 | 37.22° C | 42% | 971 hPa | - | - | 0 W/m² | - |
| 1778073515 | 37.22° C | 43% | 971 hPa | - | - | 0 W/m² | - |
| 1778072889 | 37.78° C | 41% | 971 hPa | - | - | 0 W/m² | - |
| 1778072264 | 37.78° C | 41% | 971 hPa | - | - | 0 W/m² | - |
| 1778071639 | 38.33° C | 40% | 971 hPa | - | - | 0 W/m² | - |
| 1778071013 | 37.78° C | 41% | 971 hPa | - | - | 0 W/m² | - |
| 1778070388 | 38.33° C | 42% | 971 hPa | - | - | 0 W/m² | - |
| 1778069763 | 38.33° C | 44% | 971 hPa | - | - | 0 W/m² | - |
* Rain since midnight (hover to see other rain measurements)
** Current wind speed in m/s (hover to see current wind gust speed)